sensor_id;sensor_type;location;lat;lon;timestamp;P1;durP1;ratioP1;P2;durP2;ratioP2
55212;SDS011;41083;52.932;6.674;2023-07-31T00:02:17;3.70;;;0.93;;
55212;SDS011;41083;52.932;6.674;2023-07-31T00:04:42;3.03;;;1.30;;
55212;SDS011;41083;52.932;6.674;2023-07-31T00:07:08;3.10;;;1.23;;
55212;SDS011;41083;52.932;6.674;2023-07-31T00:09:34;2.60;;;1.08;;
55212;SDS011;41083;52.932;6.674;2023-07-31T00:11:59;2.22;;;1.08;;
55212;SDS011;41083;52.932;6.674;2023-07-31T00:14:25;2.60;;;0.93;;
55212;SDS011;41083;52.932;6.674;2023-07-31T00:16:50;2.80;;;1.00;;
55212;SDS011;41083;52.932;6.674;2023-07-31T00:19:16;2.70;;;1.02;;
55212;SDS011;41083;52.932;6.674;2023-07-31T00:21:43;2.20;;;0.90;;
55212;SDS011;41083;52.932;6.674;2023-07-31T00:24:09;2.00;;;1.05;;
55212;SDS011;41083;52.932;6.674;2023-07-31T00:26:35;2.53;;;1.20;;
55212;SDS011;41083;52.932;6.674;2023-07-31T00:29:00;3.35;;;1.27;;
55212;SDS011;41083;52.932;6.674;2023-07-31T00:31:26;4.35;;;1.48;;
55212;SDS011;41083;52.932;6.674;2023-07-31T00:33:51;5.70;;;1.33;;
55212;SDS011;41083;52.932;6.674;2023-07-31T00:36:17;3.15;;;1.17;;
55212;SDS011;41083;52.932;6.674;2023-07-31T00:38:43;3.03;;;1.20;;
55212;SDS011;41083;52.932;6.674;2023-07-31T00:41:09;2.60;;;1.20;;
55212;SDS011;41083;52.932;6.674;2023-07-31T00:43:34;2.85;;;1.38;;
55212;SDS011;41083;52.932;6.674;2023-07-31T00:46:00;5.05;;;1.52;;
55212;SDS011;41083;52.932;6.674;2023-07-31T00:48:25;2.58;;;1.45;;
55212;SDS011;41083;52.932;6.674;2023-07-31T00:50:51;2.25;;;1.10;;
55212;SDS011;41083;52.932;6.674;2023-07-31T00:53:17;3.20;;;1.70;;
55212;SDS011;41083;52.932;6.674;2023-07-31T00:55:43;4.32;;;1.30;;
55212;SDS011;41083;52.932;6.674;2023-07-31T00:58:09;2.30;;;1.00;;
55212;SDS011;41083;52.932;6.674;2023-07-31T01:00:35;1.92;;;0.90;;
55212;SDS011;41083;52.932;6.674;2023-07-31T01:03:01;1.48;;;0.75;;
55212;SDS011;41083;52.932;6.674;2023-07-31T01:08:25;3.03;;;0.98;;
55212;SDS011;41083;52.932;6.674;2023-07-31T01:11:28;2.60;;;1.00;;
55212;SDS011;41083;52.932;6.674;2023-07-31T01:13:55;2.20;;;0.90;;
55212;SDS011;41083;52.932;6.674;2023-07-31T01:16:21;1.42;;;0.73;;
55212;SDS011;41083;52.932;6.674;2023-07-31T01:18:47;1.88;;;0.90;;
55212;SDS011;41083;52.932;6.674;2023-07-31T01:26:30;1.65;;;0.60;;
55212;SDS011;41083;52.932;6.674;2023-07-31T01:29:10;2.83;;;1.00;;
55212;SDS011;41083;52.932;6.674;2023-07-31T01:31:42;2.00;;;0.75;;
55212;SDS011;41083;52.932;6.674;2023-07-31T01:34:13;1.35;;;0.55;;
55212;SDS011;41083;52.932;6.674;2023-07-31T01:36:41;2.20;;;0.68;;
55212;SDS011;41083;52.932;6.674;2023-07-31T01:39:06;1.60;;;0.50;;
55212;SDS011;41083;52.932;6.674;2023-07-31T01:41:32;2.58;;;0.65;;
55212;SDS011;41083;52.932;6.674;2023-07-31T01:43:57;1.02;;;0.40;;
55212;SDS011;41083;52.932;6.674;2023-07-31T01:46:23;0.80;;;0.40;;
55212;SDS011;41083;52.932;6.674;2023-07-31T01:48:48;0.88;;;0.38;;
55212;SDS011;41083;52.932;6.674;2023-07-31T01:51:14;0.77;;;0.30;;
55212;SDS011;41083;52.932;6.674;2023-07-31T01:53:40;1.15;;;0.45;;
55212;SDS011;41083;52.932;6.674;2023-07-31T01:56:05;0.88;;;0.30;;
55212;SDS011;41083;52.932;6.674;2023-07-31T01:58:31;0.77;;;0.40;;
55212;SDS011;41083;52.932;6.674;2023-07-31T02:00:56;1.30;;;0.50;;
55212;SDS011;41083;52.932;6.674;2023-07-31T02:03:22;1.17;;;0.40;;
55212;SDS011;41083;52.932;6.674;2023-07-31T02:05:48;1.42;;;0.68;;
55212;SDS011;41083;52.932;6.674;2023-07-31T02:08:14;1.05;;;0.47;;
55212;SDS011;41083;52.932;6.674;2023-07-31T02:10:40;0.73;;;0.30;;
55212;SDS011;41083;52.932;6.674;2023-07-31T02:13:06;0.60;;;0.32;;
55212;SDS011;41083;52.932;6.674;2023-07-31T02:15:31;1.08;;;0.40;;
55212;SDS011;41083;52.932;6.674;2023-07-31T02:17:57;1.33;;;0.43;;
55212;SDS011;41083;52.932;6.674;2023-07-31T02:20:23;1.20;;;0.50;;
55212;SDS011;41083;52.932;6.674;2023-07-31T02:22:48;0.88;;;0.35;;
55212;SDS011;41083;52.932;6.674;2023-07-31T02:25:14;1.40;;;0.38;;
55212;SDS011;41083;52.932;6.674;2023-07-31T02:27:40;1.35;;;0.50;;
55212;SDS011;41083;52.932;6.674;2023-07-31T02:30:06;0.75;;;0.40;;
55212;SDS011;41083;52.932;6.674;2023-07-31T02:32:32;0.63;;;0.50;;
55212;SDS011;41083;52.932;6.674;2023-07-31T02:34:57;0.43;;;0.30;;
55212;SDS011;41083;52.932;6.674;2023-07-31T02:37:23;1.80;;;0.50;;
55212;SDS011;41083;52.932;6.674;2023-07-31T02:39:49;2.75;;;0.60;;
55212;SDS011;41083;52.932;6.674;2023-07-31T02:42:14;0.82;;;0.32;;
55212;SDS011;41083;52.932;6.674;2023-07-31T02:44:40;1.02;;;0.30;;
55212;SDS011;41083;52.932;6.674;2023-07-31T02:47:05;1.50;;;0.30;;
55212;SDS011;41083;52.932;6.674;2023-07-31T02:49:31;1.23;;;0.47;;
55212;SDS011;41083;52.932;6.674;2023-07-31T02:51:57;0.70;;;0.50;;
55212;SDS011;41083;52.932;6.674;2023-07-31T02:54:22;0.68;;;0.47;;
55212;SDS011;41083;52.932;6.674;2023-07-31T02:56:48;0.50;;;0.30;;
55212;SDS011;41083;52.932;6.674;2023-07-31T02:59:14;0.90;;;0.30;;
55212;SDS011;41083;52.932;6.674;2023-07-31T03:01:40;1.23;;;0.30;;
55212;SDS011;41083;52.932;6.674;2023-07-31T03:04:05;0.50;;;0.20;;
55212;SDS011;41083;52.932;6.674;2023-07-31T03:06:32;0.45;;;0.28;;
55212;SDS011;41083;52.932;6.674;2023-07-31T03:08:58;0.47;;;0.30;;
55212;SDS011;41083;52.932;6.674;2023-07-31T03:11:23;1.77;;;0.47;;
55212;SDS011;41083;52.932;6.674;2023-07-31T03:13:49;0.75;;;0.35;;
55212;SDS011;41083;52.932;6.674;2023-07-31T03:16:14;0.93;;;0.47;;
55212;SDS011;41083;52.932;6.674;2023-07-31T03:18:40;1.50;;;0.50;;
55212;SDS011;41083;52.932;6.674;2023-07-31T03:21:06;2.53;;;0.70;;
55212;SDS011;41083;52.932;6.674;2023-07-31T03:23:31;1.05;;;0.43;;
55212;SDS011;41083;52.932;6.674;2023-07-31T03:25:58;0.80;;;0.40;;
55212;SDS011;41083;52.932;6.674;2023-07-31T03:28:28;0.80;;;0.35;;
55212;SDS011;41083;52.932;6.674;2023-07-31T03:30:54;1.00;;;0.40;;
55212;SDS011;41083;52.932;6.674;2023-07-31T03:33:20;0.22;;;0.15;;
55212;SDS011;41083;52.932;6.674;2023-07-31T03:35:46;0.57;;;0.20;;
55212;SDS011;41083;52.932;6.674;2023-07-31T03:38:12;0.15;;;0.10;;
55212;SDS011;41083;52.932;6.674;2023-07-31T03:40:37;0.60;;;0.22;;
55212;SDS011;41083;52.932;6.674;2023-07-31T03:43:03;0.32;;;0.10;;
55212;SDS011;41083;52.932;6.674;2023-07-31T03:45:28;0.30;;;0.20;;
55212;SDS011;41083;52.932;6.674;2023-07-31T03:47:54;0.50;;;0.10;;
55212;SDS011;41083;52.932;6.674;2023-07-31T03:50:20;0.43;;;0.20;;
55212;SDS011;41083;52.932;6.674;2023-07-31T03:52:46;0.73;;;0.30;;
55212;SDS011;41083;52.932;6.674;2023-07-31T03:55:12;2.15;;;0.40;;
55212;SDS011;41083;52.932;6.674;2023-07-31T03:57:38;0.65;;;0.10;;
55212;SDS011;41083;52.932;6.674;2023-07-31T04:00:03;0.28;;;0.20;;
55212;SDS011;41083;52.932;6.674;2023-07-31T04:02:29;0.45;;;0.20;;
55212;SDS011;41083;52.932;6.674;2023-07-31T04:04:55;0.80;;;0.20;;
55212;SDS011;41083;52.932;6.674;2023-07-31T04:07:20;0.43;;;0.17;;
55212;SDS011;41083;52.932;6.674;2023-07-31T04:09:46;0.75;;;0.30;;
55212;SDS011;41083;52.932;6.674;2023-07-31T04:12:12;1.27;;;0.40;;
55212;SDS011;41083;52.932;6.674;2023-07-31T04:14:37;2.75;;;0.30;;
55212;SDS011;41083;52.932;6.674;2023-07-31T04:17:03;0.60;;;0.40;;
55212;SDS011;41083;52.932;6.674;2023-07-31T04:19:28;1.13;;;0.60;;
55212;SDS011;41083;52.932;6.674;2023-07-31T04:21:54;1.20;;;0.30;;
55212;SDS011;41083;52.932;6.674;2023-07-31T04:24:19;1.35;;;0.40;;
55212;SDS011;41083;52.932;6.674;2023-07-31T04:26:49;1.02;;;0.50;;
55212;SDS011;41083;52.932;6.674;2023-07-31T04:29:15;1.27;;;0.43;;
55212;SDS011;41083;52.932;6.674;2023-07-31T04:31:42;1.92;;;0.50;;
55212;SDS011;41083;52.932;6.674;2023-07-31T04:34:08;0.40;;;0.20;;
55212;SDS011;41083;52.932;6.674;2023-07-31T04:36:34;0.40;;;0.30;;
55212;SDS011;41083;52.932;6.674;2023-07-31T04:39:00;0.98;;;0.38;;
55212;SDS011;41083;52.932;6.674;2023-07-31T04:41:26;1.25;;;0.60;;
55212;SDS011;41083;52.932;6.674;2023-07-31T04:43:51;1.38;;;0.30;;
55212;SDS011;41083;52.932;6.674;2023-07-31T04:46:17;0.82;;;0.20;;
55212;SDS011;41083;52.932;6.674;2023-07-31T04:48:43;0.98;;;0.30;;
55212;SDS011;41083;52.932;6.674;2023-07-31T04:51:08;0.85;;;0.20;;
55212;SDS011;41083;52.932;6.674;2023-07-31T04:53:34;0.80;;;0.28;;
55212;SDS011;41083;52.932;6.674;2023-07-31T04:56:00;1.63;;;0.38;;
55212;SDS011;41083;52.932;6.674;2023-07-31T04:58:26;0.57;;;0.30;;
55212;SDS011;41083;52.932;6.674;2023-07-31T05:00:52;0.95;;;0.45;;
55212;SDS011;41083;52.932;6.674;2023-07-31T05:03:17;2.05;;;0.50;;
55212;SDS011;41083;52.932;6.674;2023-07-31T05:05:43;1.23;;;0.45;;
55212;SDS011;41083;52.932;6.674;2023-07-31T05:08:08;1.20;;;0.50;;
55212;SDS011;41083;52.932;6.674;2023-07-31T05:10:34;2.22;;;0.80;;
55212;SDS011;41083;52.932;6.674;2023-07-31T05:13:00;6.80;;;1.00;;
55212;SDS011;41083;52.932;6.674;2023-07-31T05:15:25;3.42;;;0.82;;
55212;SDS011;41083;52.932;6.674;2023-07-31T05:17:51;4.60;;;1.10;;
55212;SDS011;41083;52.932;6.674;2023-07-31T05:20:16;3.28;;;1.27;;
55212;SDS011;41083;52.932;6.674;2023-07-31T05:22:42;2.83;;;1.23;;
55212;SDS011;41083;52.932;6.674;2023-07-31T05:25:08;4.72;;;1.45;;
55212;SDS011;41083;52.932;6.674;2023-07-31T05:27:33;3.92;;;1.05;;
55212;SDS011;41083;52.932;6.674;2023-07-31T05:29:59;5.25;;;1.40;;
55212;SDS011;41083;52.932;6.674;2023-07-31T05:32:25;4.28;;;1.55;;
55212;SDS011;41083;52.932;6.674;2023-07-31T05:34:51;4.47;;;1.52;;
55212;SDS011;41083;52.932;6.674;2023-07-31T05:37:17;5.05;;;1.60;;
55212;SDS011;41083;52.932;6.674;2023-07-31T05:39:43;6.30;;;1.33;;
55212;SDS011;41083;52.932;6.674;2023-07-31T05:42:09;4.57;;;1.70;;
55212;SDS011;41083;52.932;6.674;2023-07-31T05:44:35;7.68;;;1.55;;
55212;SDS011;41083;52.932;6.674;2023-07-31T05:47:00;7.25;;;1.88;;
55212;SDS011;41083;52.932;6.674;2023-07-31T05:49:26;8.77;;;2.05;;
55212;SDS011;41083;52.932;6.674;2023-07-31T05:51:51;9.20;;;2.17;;
55212;SDS011;41083;52.932;6.674;2023-07-31T05:54:17;6.50;;;1.55;;
55212;SDS011;41083;52.932;6.674;2023-07-31T05:56:42;6.80;;;2.00;;
55212;SDS011;41083;52.932;6.674;2023-07-31T05:59:08;7.40;;;1.95;;
55212;SDS011;41083;52.932;6.674;2023-07-31T06:01:35;7.05;;;2.08;;
55212;SDS011;41083;52.932;6.674;2023-07-31T06:04:00;10.93;;;2.13;;
55212;SDS011;41083;52.932;6.674;2023-07-31T06:06:27;8.45;;;2.13;;
55212;SDS011;41083;52.932;6.674;2023-07-31T06:08:53;3.95;;;1.60;;
55212;SDS011;41083;52.932;6.674;2023-07-31T06:11:19;10.00;;;1.67;;
55212;SDS011;41083;52.932;6.674;2023-07-31T06:13:45;5.57;;;1.70;;
55212;SDS011;41083;52.932;6.674;2023-07-31T06:16:13;7.63;;;1.80;;
55212;SDS011;41083;52.932;6.674;2023-07-31T06:18:40;6.78;;;2.50;;
55212;SDS011;41083;52.932;6.674;2023-07-31T06:21:06;6.80;;;2.38;;
55212;SDS011;41083;52.932;6.674;2023-07-31T06:23:31;9.68;;;2.30;;
55212;SDS011;41083;52.932;6.674;2023-07-31T06:25:57;5.25;;;1.55;;
55212;SDS011;41083;52.932;6.674;2023-07-31T06:28:29;5.90;;;1.67;;
55212;SDS011;41083;52.932;6.674;2023-07-31T06:30:56;3.83;;;1.70;;
55212;SDS011;41083;52.932;6.674;2023-07-31T06:33:22;6.68;;;1.83;;
55212;SDS011;41083;52.932;6.674;2023-07-31T06:35:47;4.35;;;1.75;;
55212;SDS011;41083;52.932;6.674;2023-07-31T06:38:13;6.28;;;1.85;;
55212;SDS011;41083;52.932;6.674;2023-07-31T06:40:38;4.85;;;1.58;;
55212;SDS011;41083;52.932;6.674;2023-07-31T06:43:04;6.00;;;2.05;;
55212;SDS011;41083;52.932;6.674;2023-07-31T06:45:33;10.35;;;2.50;;
55212;SDS011;41083;52.932;6.674;2023-07-31T06:48:00;6.10;;;1.75;;
55212;SDS011;41083;52.932;6.674;2023-07-31T06:50:27;5.45;;;1.83;;
55212;SDS011;41083;52.932;6.674;2023-07-31T06:52:53;8.65;;;2.00;;
55212;SDS011;41083;52.932;6.674;2023-07-31T06:55:19;9.88;;;2.67;;
55212;SDS011;41083;52.932;6.674;2023-07-31T06:57:49;6.53;;;2.17;;
55212;SDS011;41083;52.932;6.674;2023-07-31T07:00:17;9.07;;;2.45;;
55212;SDS011;41083;52.932;6.674;2023-07-31T07:02:43;12.02;;;2.55;;
55212;SDS011;41083;52.932;6.674;2023-07-31T07:05:09;12.32;;;2.90;;
55212;SDS011;41083;52.932;6.674;2023-07-31T07:07:35;8.05;;;2.03;;
55212;SDS011;41083;52.932;6.674;2023-07-31T07:10:01;8.40;;;2.30;;
55212;SDS011;41083;52.932;6.674;2023-07-31T07:12:29;8.13;;;2.67;;
55212;SDS011;41083;52.932;6.674;2023-07-31T07:14:55;10.43;;;2.65;;
55212;SDS011;41083;52.932;6.674;2023-07-31T07:17:22;5.90;;;2.40;;
55212;SDS011;41083;52.932;6.674;2023-07-31T07:19:48;4.97;;;1.98;;
55212;SDS011;41083;52.932;6.674;2023-07-31T07:22:14;4.80;;;1.98;;
55212;SDS011;41083;52.932;6.674;2023-07-31T07:24:39;10.27;;;2.78;;
55212;SDS011;41083;52.932;6.674;2023-07-31T07:27:05;4.03;;;1.80;;
55212;SDS011;41083;52.932;6.674;2023-07-31T07:29:31;5.30;;;1.98;;
55212;SDS011;41083;52.932;6.674;2023-07-31T07:31:57;3.72;;;1.80;;
55212;SDS011;41083;52.932;6.674;2023-07-31T07:34:23;4.10;;;1.73;;
55212;SDS011;41083;52.932;6.674;2023-07-31T07:36:50;6.53;;;2.08;;
55212;SDS011;41083;52.932;6.674;2023-07-31T07:39:16;3.15;;;1.52;;
55212;SDS011;41083;52.932;6.674;2023-07-31T07:41:41;5.00;;;1.73;;
55212;SDS011;41083;52.932;6.674;2023-07-31T07:44:07;5.70;;;2.10;;
55212;SDS011;41083;52.932;6.674;2023-07-31T07:46:33;4.82;;;1.85;;
55212;SDS011;41083;52.932;6.674;2023-07-31T07:48:59;6.45;;;2.00;;
55212;SDS011;41083;52.932;6.674;2023-07-31T07:51:24;4.43;;;1.77;;
55212;SDS011;41083;52.932;6.674;2023-07-31T07:53:50;5.25;;;1.45;;
55212;SDS011;41083;52.932;6.674;2023-07-31T07:56:15;2.75;;;1.30;;
55212;SDS011;41083;52.932;6.674;2023-07-31T07:58:41;5.00;;;1.27;;
55212;SDS011;41083;52.932;6.674;2023-07-31T08:01:07;4.20;;;1.70;;
55212;SDS011;41083;52.932;6.674;2023-07-31T08:03:32;4.18;;;1.27;;
55212;SDS011;41083;52.932;6.674;2023-07-31T08:05:58;5.47;;;1.33;;
55212;SDS011;41083;52.932;6.674;2023-07-31T08:08:25;5.05;;;1.25;;
55212;SDS011;41083;52.932;6.674;2023-07-31T08:10:50;2.90;;;0.93;;
55212;SDS011;41083;52.932;6.674;2023-07-31T08:13:16;2.90;;;1.15;;
55212;SDS011;41083;52.932;6.674;2023-07-31T08:15:42;3.08;;;1.17;;
55212;SDS011;41083;52.932;6.674;2023-07-31T08:18:08;2.40;;;0.90;;
55212;SDS011;41083;52.932;6.674;2023-07-31T08:20:33;3.70;;;1.00;;
55212;SDS011;41083;52.932;6.674;2023-07-31T08:22:59;4.25;;;1.23;;
55212;SDS011;41083;52.932;6.674;2023-07-31T08:25:25;2.63;;;1.02;;
55212;SDS011;41083;52.932;6.674;2023-07-31T08:27:50;1.90;;;1.00;;
55212;SDS011;41083;52.932;6.674;2023-07-31T08:30:18;2.70;;;1.00;;
55212;SDS011;41083;52.932;6.674;2023-07-31T08:32:44;2.53;;;0.90;;
55212;SDS011;41083;52.932;6.674;2023-07-31T08:35:10;2.65;;;1.08;;
55212;SDS011;41083;52.932;6.674;2023-07-31T08:37:36;2.45;;;1.23;;
55212;SDS011;41083;52.932;6.674;2023-07-31T08:40:03;3.50;;;1.05;;
55212;SDS011;41083;52.932;6.674;2023-07-31T08:42:29;3.13;;;0.90;;
55212;SDS011;41083;52.932;6.674;2023-07-31T08:44:55;1.63;;;0.52;;
55212;SDS011;41083;52.932;6.674;2023-07-31T08:47:21;4.45;;;0.90;;
55212;SDS011;41083;52.932;6.674;2023-07-31T08:49:47;3.83;;;1.00;;
55212;SDS011;41083;52.932;6.674;2023-07-31T08:52:14;1.90;;;0.68;;
55212;SDS011;41083;52.932;6.674;2023-07-31T08:54:40;3.65;;;1.00;;
55212;SDS011;41083;52.932;6.674;2023-07-31T08:57:06;1.77;;;0.73;;
55212;SDS011;41083;52.932;6.674;2023-07-31T08:59:32;1.73;;;0.88;;
55212;SDS011;41083;52.932;6.674;2023-07-31T09:02:09;1.45;;;0.77;;
55212;SDS011;41083;52.932;6.674;2023-07-31T09:04:36;3.30;;;0.60;;
55212;SDS011;41083;52.932;6.674;2023-07-31T09:07:02;1.55;;;0.70;;
55212;SDS011;41083;52.932;6.674;2023-07-31T09:09:30;1.50;;;0.80;;
55212;SDS011;41083;52.932;6.674;2023-07-31T09:11:57;2.10;;;0.88;;
55212;SDS011;41083;52.932;6.674;2023-07-31T09:14:22;1.27;;;0.50;;
55212;SDS011;41083;52.932;6.674;2023-07-31T09:16:56;1.17;;;0.52;;
55212;SDS011;41083;52.932;6.674;2023-07-31T09:19:25;1.30;;;0.40;;
55212;SDS011;41083;52.932;6.674;2023-07-31T09:21:52;1.35;;;0.52;;
55212;SDS011;41083;52.932;6.674;2023-07-31T09:24:28;1.48;;;0.55;;
55212;SDS011;41083;52.932;6.674;2023-07-31T09:26:55;1.55;;;0.47;;
55212;SDS011;41083;52.932;6.674;2023-07-31T09:29:23;1.20;;;0.47;;
55212;SDS011;41083;52.932;6.674;2023-07-31T09:31:49;1.00;;;0.50;;
55212;SDS011;41083;52.932;6.674;2023-07-31T09:34:15;0.75;;;0.40;;
55212;SDS011;41083;52.932;6.674;2023-07-31T09:36:47;1.08;;;0.45;;
55212;SDS011;41083;52.932;6.674;2023-07-31T09:39:16;1.30;;;0.68;;
55212;SDS011;41083;52.932;6.674;2023-07-31T09:41:43;0.95;;;0.40;;
55212;SDS011;41083;52.932;6.674;2023-07-31T09:44:10;1.25;;;0.45;;
55212;SDS011;41083;52.932;6.674;2023-07-31T09:46:36;0.80;;;0.43;;
55212;SDS011;41083;52.932;6.674;2023-07-31T09:49:03;0.98;;;0.40;;
55212;SDS011;41083;52.932;6.674;2023-07-31T09:51:34;2.00;;;0.38;;
55212;SDS011;41083;52.932;6.674;2023-07-31T09:54:04;0.73;;;0.30;;
55212;SDS011;41083;52.932;6.674;2023-07-31T09:56:34;0.95;;;0.30;;
55212;SDS011;41083;52.932;6.674;2023-07-31T09:59:01;0.75;;;0.30;;
55212;SDS011;41083;52.932;6.674;2023-07-31T10:01:29;0.45;;;0.20;;
55212;SDS011;41083;52.932;6.674;2023-07-31T10:03:54;0.75;;;0.38;;
55212;SDS011;41083;52.932;6.674;2023-07-31T10:06:21;0.70;;;0.30;;
55212;SDS011;41083;52.932;6.674;2023-07-31T10:08:47;1.55;;;0.30;;
55212;SDS011;41083;52.932;6.674;2023-07-31T10:11:16;1.08;;;0.40;;
55212;SDS011;41083;52.932;6.674;2023-07-31T10:13:42;0.95;;;0.45;;
55212;SDS011;41083;52.932;6.674;2023-07-31T10:16:09;0.63;;;0.30;;
55212;SDS011;41083;52.932;6.674;2023-07-31T10:18:35;0.65;;;0.30;;
55212;SDS011;41083;52.932;6.674;2023-07-31T10:21:02;0.98;;;0.35;;
55212;SDS011;41083;52.932;6.674;2023-07-31T10:23:27;0.40;;;0.30;;
55212;SDS011;41083;52.932;6.674;2023-07-31T10:25:54;1.38;;;0.40;;
55212;SDS011;41083;52.932;6.674;2023-07-31T10:28:22;0.70;;;0.38;;
55212;SDS011;41083;52.932;6.674;2023-07-31T10:30:49;1.70;;;0.52;;
55212;SDS011;41083;52.932;6.674;2023-07-31T10:33:16;0.93;;;0.40;;
55212;SDS011;41083;52.932;6.674;2023-07-31T10:35:43;1.40;;;0.50;;
55212;SDS011;41083;52.932;6.674;2023-07-31T10:38:11;1.23;;;0.70;;
55212;SDS011;41083;52.932;6.674;2023-07-31T10:40:38;0.95;;;0.40;;
55212;SDS011;41083;52.932;6.674;2023-07-31T10:43:04;1.05;;;0.50;;
55212;SDS011;41083;52.932;6.674;2023-07-31T10:50:29;1.00;;;0.43;;
55212;SDS011;41083;52.932;6.674;2023-07-31T10:52:57;1.05;;;0.50;;
55212;SDS011;41083;52.932;6.674;2023-07-31T10:58:09;1.38;;;0.50;;
55212;SDS011;41083;52.932;6.674;2023-07-31T11:00:37;1.48;;;0.52;;
55212;SDS011;41083;52.932;6.674;2023-07-31T11:08:11;0.82;;;0.50;;
55212;SDS011;41083;52.932;6.674;2023-07-31T11:10:42;0.43;;;0.30;;
55212;SDS011;41083;52.932;6.674;2023-07-31T11:13:09;0.82;;;0.32;;
55212;SDS011;41083;52.932;6.674;2023-07-31T11:15:35;0.63;;;0.20;;
55212;SDS011;41083;52.932;6.674;2023-07-31T11:18:01;0.50;;;0.20;;
55212;SDS011;41083;52.932;6.674;2023-07-31T11:20:35;0.32;;;0.20;;
55212;SDS011;41083;52.932;6.674;2023-07-31T11:23:02;0.30;;;0.20;;
55212;SDS011;41083;52.932;6.674;2023-07-31T11:25:30;0.30;;;0.20;;
55212;SDS011;41083;52.932;6.674;2023-07-31T11:28:05;0.32;;;0.25;;
55212;SDS011;41083;52.932;6.674;2023-07-31T11:30:32;0.10;;;0.10;;
55212;SDS011;41083;52.932;6.674;2023-07-31T11:32:59;0.25;;;0.20;;
55212;SDS011;41083;52.932;6.674;2023-07-31T11:35:28;0.32;;;0.20;;
55212;SDS011;41083;52.932;6.674;2023-07-31T11:37:57;0.40;;;0.20;;
55212;SDS011;41083;52.932;6.674;2023-07-31T11:40:23;0.20;;;0.10;;
55212;SDS011;41083;52.932;6.674;2023-07-31T11:42:54;1.45;;;0.40;;
55212;SDS011;41083;52.932;6.674;2023-07-31T11:45:26;0.52;;;0.20;;
55212;SDS011;41083;52.932;6.674;2023-07-31T11:47:53;0.50;;;0.20;;
55212;SDS011;41083;52.932;6.674;2023-07-31T11:50:19;0.68;;;0.30;;
55212;SDS011;41083;52.932;6.674;2023-07-31T11:52:45;0.93;;;0.30;;
55212;SDS011;41083;52.932;6.674;2023-07-31T11:55:16;1.55;;;0.50;;
55212;SDS011;41083;52.932;6.674;2023-07-31T11:57:42;0.95;;;0.60;;
55212;SDS011;41083;52.932;6.674;2023-07-31T12:00:10;0.88;;;0.40;;
55212;SDS011;41083;52.932;6.674;2023-07-31T12:02:38;2.65;;;0.60;;
55212;SDS011;41083;52.932;6.674;2023-07-31T12:05:10;2.70;;;0.50;;
55212;SDS011;41083;52.932;6.674;2023-07-31T12:07:45;1.30;;;0.60;;
55212;SDS011;41083;52.932;6.674;2023-07-31T12:10:23;1.63;;;0.50;;
55212;SDS011;41083;52.932;6.674;2023-07-31T12:12:59;0.57;;;0.28;;
55212;SDS011;41083;52.932;6.674;2023-07-31T12:15:45;1.23;;;0.40;;
55212;SDS011;41083;52.932;6.674;2023-07-31T12:18:11;0.32;;;0.20;;
55212;SDS011;41083;52.932;6.674;2023-07-31T12:20:42;2.95;;;0.38;;
55212;SDS011;41083;52.932;6.674;2023-07-31T12:23:19;0.63;;;0.30;;
55212;SDS011;41083;52.932;6.674;2023-07-31T12:26:03;0.15;;;0.10;;
55212;SDS011;41083;52.932;6.674;2023-07-31T12:28:30;0.40;;;0.10;;
55212;SDS011;41083;52.932;6.674;2023-07-31T12:31:00;0.55;;;0.20;;
55212;SDS011;41083;52.932;6.674;2023-07-31T12:33:32;0.50;;;0.20;;
55212;SDS011;41083;52.932;6.674;2023-07-31T12:36:00;2.03;;;0.25;;
55212;SDS011;41083;52.932;6.674;2023-07-31T12:38:28;3.25;;;0.50;;
55212;SDS011;41083;52.932;6.674;2023-07-31T12:40:54;1.85;;;0.40;;
55212;SDS011;41083;52.932;6.674;2023-07-31T12:43:20;1.00;;;0.40;;
55212;SDS011;41083;52.932;6.674;2023-07-31T12:45:45;0.90;;;0.40;;
55212;SDS011;41083;52.932;6.674;2023-07-31T12:48:12;0.88;;;0.50;;
55212;SDS011;41083;52.932;6.674;2023-07-31T12:50:38;1.23;;;0.47;;
55212;SDS011;41083;52.932;6.674;2023-07-31T12:53:04;0.55;;;0.32;;
55212;SDS011;41083;52.932;6.674;2023-07-31T12:55:30;1.33;;;0.47;;
55212;SDS011;41083;52.932;6.674;2023-07-31T12:57:55;2.58;;;0.50;;
55212;SDS011;41083;52.932;6.674;2023-07-31T13:00:21;1.13;;;0.60;;
55212;SDS011;41083;52.932;6.674;2023-07-31T13:02:47;1.40;;;0.50;;
55212;SDS011;41083;52.932;6.674;2023-07-31T13:05:13;1.23;;;0.40;;
55212;SDS011;41083;52.932;6.674;2023-07-31T13:07:39;1.92;;;0.60;;
55212;SDS011;41083;52.932;6.674;2023-07-31T13:10:05;1.17;;;0.40;;
55212;SDS011;41083;52.932;6.674;2023-07-31T13:12:32;2.33;;;0.40;;
55212;SDS011;41083;52.932;6.674;2023-07-31T13:14:57;1.58;;;0.40;;
55212;SDS011;41083;52.932;6.674;2023-07-31T13:17:23;0.65;;;0.30;;
55212;SDS011;41083;52.932;6.674;2023-07-31T13:19:48;3.80;;;0.68;;
55212;SDS011;41083;52.932;6.674;2023-07-31T13:22:14;0.82;;;0.30;;
55212;SDS011;41083;52.932;6.674;2023-07-31T13:24:40;1.30;;;0.60;;
55212;SDS011;41083;52.932;6.674;2023-07-31T13:27:05;1.65;;;0.70;;
55212;SDS011;41083;52.932;6.674;2023-07-31T13:29:31;4.15;;;0.82;;
55212;SDS011;41083;52.932;6.674;2023-07-31T13:31:57;3.00;;;0.82;;
55212;SDS011;41083;52.932;6.674;2023-07-31T13:34:22;5.18;;;1.00;;
55212;SDS011;41083;52.932;6.674;2023-07-31T13:36:48;2.28;;;0.85;;
55212;SDS011;41083;52.932;6.674;2023-07-31T13:39:14;1.92;;;0.90;;
55212;SDS011;41083;52.932;6.674;2023-07-31T13:41:39;2.67;;;1.10;;
55212;SDS011;41083;52.932;6.674;2023-07-31T13:44:05;1.85;;;1.10;;
55212;SDS011;41083;52.932;6.674;2023-07-31T13:46:30;3.65;;;1.20;;
55212;SDS011;41083;52.932;6.674;2023-07-31T13:48:57;4.22;;;1.15;;
55212;SDS011;41083;52.932;6.674;2023-07-31T13:51:24;3.33;;;1.25;;
55212;SDS011;41083;52.932;6.674;2023-07-31T13:53:50;2.80;;;1.02;;
55212;SDS011;41083;52.932;6.674;2023-07-31T13:56:16;5.43;;;1.17;;
55212;SDS011;41083;52.932;6.674;2023-07-31T13:58:41;3.95;;;1.30;;
55212;SDS011;41083;52.932;6.674;2023-07-31T14:01:07;5.75;;;1.08;;
55212;SDS011;41083;52.932;6.674;2023-07-31T14:03:32;8.93;;;1.35;;
55212;SDS011;41083;52.932;6.674;2023-07-31T14:05:58;1.83;;;0.93;;
55212;SDS011;41083;52.932;6.674;2023-07-31T14:08:24;4.35;;;1.10;;
55212;SDS011;41083;52.932;6.674;2023-07-31T14:10:49;3.60;;;1.05;;
55212;SDS011;41083;52.932;6.674;2023-07-31T14:13:15;4.70;;;1.02;;
55212;SDS011;41083;52.932;6.674;2023-07-31T14:15:41;3.00;;;1.25;;
55212;SDS011;41083;52.932;6.674;2023-07-31T14:18:08;4.95;;;1.60;;
55212;SDS011;41083;52.932;6.674;2023-07-31T14:20:34;4.20;;;1.30;;
55212;SDS011;41083;52.932;6.674;2023-07-31T14:23:00;4.05;;;1.25;;
55212;SDS011;41083;52.932;6.674;2023-07-31T14:25:27;2.85;;;1.20;;
55212;SDS011;41083;52.932;6.674;2023-07-31T14:27:52;2.60;;;1.13;;
55212;SDS011;41083;52.932;6.674;2023-07-31T14:30:18;4.45;;;1.50;;
55212;SDS011;41083;52.932;6.674;2023-07-31T14:32:44;4.85;;;1.38;;
55212;SDS011;41083;52.932;6.674;2023-07-31T14:35:09;4.95;;;1.48;;
55212;SDS011;41083;52.932;6.674;2023-07-31T14:37:39;3.08;;;1.30;;
55212;SDS011;41083;52.932;6.674;2023-07-31T14:40:05;6.93;;;1.52;;
55212;SDS011;41083;52.932;6.674;2023-07-31T14:42:32;4.15;;;1.85;;
55212;SDS011;41083;52.932;6.674;2023-07-31T14:44:59;5.45;;;1.20;;
55212;SDS011;41083;52.932;6.674;2023-07-31T14:47:24;7.80;;;1.63;;
55212;SDS011;41083;52.932;6.674;2023-07-31T14:49:50;3.58;;;1.42;;
55212;SDS011;41083;52.932;6.674;2023-07-31T14:52:15;3.25;;;1.40;;
55212;SDS011;41083;52.932;6.674;2023-07-31T14:54:41;3.40;;;1.33;;
55212;SDS011;41083;52.932;6.674;2023-07-31T14:57:06;4.20;;;1.20;;
55212;SDS011;41083;52.932;6.674;2023-07-31T14:59:32;3.38;;;1.27;;
55212;SDS011;41083;52.932;6.674;2023-07-31T15:01:58;3.60;;;1.45;;
55212;SDS011;41083;52.932;6.674;2023-07-31T15:04:24;4.93;;;1.55;;
55212;SDS011;41083;52.932;6.674;2023-07-31T15:06:50;3.40;;;1.27;;